Terminal Aerodrome Forecast
Issued by NWS

Home | Current Version | Previous Version | Text Only | Print | Product List | Glossary On
Versions: 1 2 3 4 5 6 7 8 9
095
FTPA31 PHFO 232326
TAFHJH
TAF
PHJH 232326Z 2400/2424 05014KT P6SM FEW025 SCT045
     FM240600 06010KT P6SM FEW030 SCT050
     FM242000 05014KT P6SM SCT025 SCT045=

USA.gov is the U.S. government's official web portal to all federal, state and local government web resources and services.